sensor_id;sensor_type;location;lat;lon;timestamp;P1;durP1;ratioP1;P2;durP2;ratioP2
63536;SDS011;49686;51.880;5.632;2023-08-07T00:01:21;7.05;;;2.20;;
63536;SDS011;49686;51.880;5.632;2023-08-07T00:03:48;6.45;;;2.22;;
63536;SDS011;49686;51.880;5.632;2023-08-07T00:06:15;7.13;;;1.67;;
63536;SDS011;49686;51.880;5.632;2023-08-07T00:08:42;7.53;;;1.40;;
63536;SDS011;49686;51.880;5.632;2023-08-07T00:11:09;8.18;;;1.70;;
63536;SDS011;49686;51.880;5.632;2023-08-07T00:13:36;4.72;;;1.30;;
63536;SDS011;49686;51.880;5.632;2023-08-07T00:16:03;7.18;;;1.60;;
63536;SDS011;49686;51.880;5.632;2023-08-07T00:18:32;7.93;;;1.67;;
63536;SDS011;49686;51.880;5.632;2023-08-07T00:20:59;10.77;;;1.65;;
63536;SDS011;49686;51.880;5.632;2023-08-07T00:23:26;5.50;;;1.60;;
63536;SDS011;49686;51.880;5.632;2023-08-07T00:25:52;5.90;;;1.40;;
63536;SDS011;49686;51.880;5.632;2023-08-07T00:28:19;6.10;;;1.52;;
63536;SDS011;49686;51.880;5.632;2023-08-07T00:30:46;10.70;;;1.85;;
63536;SDS011;49686;51.880;5.632;2023-08-07T00:33:13;6.45;;;1.90;;
63536;SDS011;49686;51.880;5.632;2023-08-07T00:35:41;8.13;;;2.20;;
63536;SDS011;49686;51.880;5.632;2023-08-07T00:38:08;12.70;;;2.33;;
63536;SDS011;49686;51.880;5.632;2023-08-07T00:40:37;5.90;;;1.50;;
63536;SDS011;49686;51.880;5.632;2023-08-07T00:43:05;8.15;;;2.13;;
63536;SDS011;49686;51.880;5.632;2023-08-07T00:45:32;9.93;;;2.45;;
63536;SDS011;49686;51.880;5.632;2023-08-07T00:48:04;8.02;;;1.80;;
63536;SDS011;49686;51.880;5.632;2023-08-07T00:50:31;6.00;;;1.63;;
63536;SDS011;49686;51.880;5.632;2023-08-07T00:53:13;9.02;;;2.30;;
63536;SDS011;49686;51.880;5.632;2023-08-07T00:55:40;10.23;;;2.58;;
63536;SDS011;49686;51.880;5.632;2023-08-07T00:58:08;9.20;;;2.25;;
63536;SDS011;49686;51.880;5.632;2023-08-07T01:00:34;12.85;;;2.10;;
63536;SDS011;49686;51.880;5.632;2023-08-07T01:03:04;11.10;;;2.45;;
63536;SDS011;49686;51.880;5.632;2023-08-07T01:05:32;10.05;;;1.77;;
63536;SDS011;49686;51.880;5.632;2023-08-07T01:08:00;12.45;;;2.22;;
63536;SDS011;49686;51.880;5.632;2023-08-07T01:10:31;9.68;;;2.50;;
63536;SDS011;49686;51.880;5.632;2023-08-07T01:13:18;9.98;;;3.00;;
63536;SDS011;49686;51.880;5.632;2023-08-07T01:15:52;6.95;;;2.15;;
63536;SDS011;49686;51.880;5.632;2023-08-07T01:18:23;10.48;;;1.98;;
63536;SDS011;49686;51.880;5.632;2023-08-07T01:20:50;7.53;;;1.92;;
63536;SDS011;49686;51.880;5.632;2023-08-07T01:23:18;8.57;;;2.20;;
63536;SDS011;49686;51.880;5.632;2023-08-07T01:25:45;12.02;;;3.47;;
63536;SDS011;49686;51.880;5.632;2023-08-07T01:28:14;11.02;;;2.42;;
63536;SDS011;49686;51.880;5.632;2023-08-07T01:30:46;11.38;;;2.45;;
63536;SDS011;49686;51.880;5.632;2023-08-07T01:33:16;9.43;;;2.03;;
63536;SDS011;49686;51.880;5.632;2023-08-07T01:35:51;10.23;;;2.15;;
63536;SDS011;49686;51.880;5.632;2023-08-07T01:38:21;10.50;;;3.03;;
63536;SDS011;49686;51.880;5.632;2023-08-07T01:40:50;7.63;;;2.30;;
63536;SDS011;49686;51.880;5.632;2023-08-07T01:43:18;8.67;;;2.63;;
63536;SDS011;49686;51.880;5.632;2023-08-07T01:45:45;5.15;;;1.80;;
63536;SDS011;49686;51.880;5.632;2023-08-07T01:48:12;13.05;;;3.05;;
63536;SDS011;49686;51.880;5.632;2023-08-07T01:50:39;6.65;;;1.90;;
63536;SDS011;49686;51.880;5.632;2023-08-07T01:53:07;7.43;;;1.80;;
63536;SDS011;49686;51.880;5.632;2023-08-07T01:55:35;7.13;;;2.13;;
63536;SDS011;49686;51.880;5.632;2023-08-07T01:58:02;3.25;;;1.42;;
63536;SDS011;49686;51.880;5.632;2023-08-07T02:00:29;10.15;;;2.08;;
63536;SDS011;49686;51.880;5.632;2023-08-07T02:02:56;9.75;;;2.20;;
63536;SDS011;49686;51.880;5.632;2023-08-07T02:05:23;9.23;;;1.80;;
63536;SDS011;49686;51.880;5.632;2023-08-07T02:07:50;8.45;;;2.47;;
63536;SDS011;49686;51.880;5.632;2023-08-07T02:10:17;11.13;;;2.33;;
63536;SDS011;49686;51.880;5.632;2023-08-07T02:12:46;11.43;;;2.47;;
63536;SDS011;49686;51.880;5.632;2023-08-07T02:15:12;9.10;;;1.92;;
63536;SDS011;49686;51.880;5.632;2023-08-07T02:17:39;9.63;;;2.20;;
63536;SDS011;49686;51.880;5.632;2023-08-07T02:20:06;5.65;;;1.75;;
63536;SDS011;49686;51.880;5.632;2023-08-07T02:22:34;9.38;;;2.35;;
63536;SDS011;49686;51.880;5.632;2023-08-07T02:25:01;9.68;;;2.60;;
63536;SDS011;49686;51.880;5.632;2023-08-07T02:27:28;6.47;;;1.75;;
63536;SDS011;49686;51.880;5.632;2023-08-07T02:29:56;6.78;;;1.92;;
63536;SDS011;49686;51.880;5.632;2023-08-07T02:32:22;6.22;;;1.80;;
63536;SDS011;49686;51.880;5.632;2023-08-07T02:34:50;8.07;;;1.85;;
63536;SDS011;49686;51.880;5.632;2023-08-07T02:37:16;5.85;;;1.52;;
63536;SDS011;49686;51.880;5.632;2023-08-07T02:39:43;7.90;;;1.88;;
63536;SDS011;49686;51.880;5.632;2023-08-07T02:42:10;7.18;;;1.70;;
63536;SDS011;49686;51.880;5.632;2023-08-07T02:44:37;8.35;;;2.60;;
63536;SDS011;49686;51.880;5.632;2023-08-07T02:47:05;9.15;;;2.00;;
63536;SDS011;49686;51.880;5.632;2023-08-07T02:49:32;6.45;;;1.83;;
63536;SDS011;49686;51.880;5.632;2023-08-07T02:51:59;5.93;;;2.63;;
63536;SDS011;49686;51.880;5.632;2023-08-07T02:54:26;7.13;;;1.83;;
63536;SDS011;49686;51.880;5.632;2023-08-07T02:56:53;8.27;;;1.83;;
63536;SDS011;49686;51.880;5.632;2023-08-07T02:59:20;7.22;;;2.10;;
63536;SDS011;49686;51.880;5.632;2023-08-07T03:01:47;7.57;;;1.73;;
63536;SDS011;49686;51.880;5.632;2023-08-07T03:04:15;8.77;;;2.50;;
63536;SDS011;49686;51.880;5.632;2023-08-07T03:06:42;7.68;;;2.30;;
63536;SDS011;49686;51.880;5.632;2023-08-07T03:09:09;9.38;;;2.28;;
63536;SDS011;49686;51.880;5.632;2023-08-07T03:11:36;11.07;;;2.03;;
63536;SDS011;49686;51.880;5.632;2023-08-07T03:14:02;8.93;;;2.40;;
63536;SDS011;49686;51.880;5.632;2023-08-07T03:16:29;11.60;;;2.28;;
63536;SDS011;49686;51.880;5.632;2023-08-07T03:18:56;10.98;;;2.15;;
63536;SDS011;49686;51.880;5.632;2023-08-07T03:21:24;17.33;;;3.15;;
63536;SDS011;49686;51.880;5.632;2023-08-07T03:23:51;7.95;;;2.00;;
63536;SDS011;49686;51.880;5.632;2023-08-07T03:26:18;9.63;;;2.45;;
63536;SDS011;49686;51.880;5.632;2023-08-07T03:28:45;5.78;;;2.10;;
63536;SDS011;49686;51.880;5.632;2023-08-07T03:31:12;8.80;;;2.17;;
63536;SDS011;49686;51.880;5.632;2023-08-07T03:33:39;6.95;;;2.03;;
63536;SDS011;49686;51.880;5.632;2023-08-07T03:36:06;10.85;;;2.35;;
63536;SDS011;49686;51.880;5.632;2023-08-07T03:38:36;10.57;;;2.25;;
63536;SDS011;49686;51.880;5.632;2023-08-07T03:41:02;6.20;;;2.35;;
63536;SDS011;49686;51.880;5.632;2023-08-07T03:43:29;9.30;;;2.00;;
63536;SDS011;49686;51.880;5.632;2023-08-07T03:45:56;3.55;;;1.48;;
63536;SDS011;49686;51.880;5.632;2023-08-07T03:48:28;7.78;;;1.92;;
63536;SDS011;49686;51.880;5.632;2023-08-07T03:51:01;8.07;;;2.33;;
63536;SDS011;49686;51.880;5.632;2023-08-07T03:53:28;6.95;;;2.13;;
63536;SDS011;49686;51.880;5.632;2023-08-07T03:55:57;12.18;;;2.35;;
63536;SDS011;49686;51.880;5.632;2023-08-07T03:58:23;7.25;;;2.42;;
63536;SDS011;49686;51.880;5.632;2023-08-07T04:00:50;11.23;;;2.60;;
63536;SDS011;49686;51.880;5.632;2023-08-07T04:03:19;12.73;;;2.40;;
63536;SDS011;49686;51.880;5.632;2023-08-07T04:05:46;9.55;;;2.00;;
63536;SDS011;49686;51.880;5.632;2023-08-07T04:08:13;11.45;;;2.10;;
63536;SDS011;49686;51.880;5.632;2023-08-07T04:10:39;5.47;;;2.10;;
63536;SDS011;49686;51.880;5.632;2023-08-07T04:13:08;6.25;;;1.90;;
63536;SDS011;49686;51.880;5.632;2023-08-07T04:15:34;7.80;;;2.10;;
63536;SDS011;49686;51.880;5.632;2023-08-07T04:18:01;7.57;;;1.73;;
63536;SDS011;49686;51.880;5.632;2023-08-07T04:20:28;6.88;;;2.20;;
63536;SDS011;49686;51.880;5.632;2023-08-07T04:22:55;9.85;;;2.08;;
63536;SDS011;49686;51.880;5.632;2023-08-07T04:25:22;10.18;;;3.13;;
63536;SDS011;49686;51.880;5.632;2023-08-07T04:27:49;9.63;;;1.60;;
63536;SDS011;49686;51.880;5.632;2023-08-07T04:30:17;6.93;;;2.30;;
63536;SDS011;49686;51.880;5.632;2023-08-07T04:32:44;7.70;;;2.10;;
63536;SDS011;49686;51.880;5.632;2023-08-07T04:35:11;7.13;;;1.90;;
63536;SDS011;49686;51.880;5.632;2023-08-07T04:37:37;7.00;;;2.83;;
63536;SDS011;49686;51.880;5.632;2023-08-07T04:42:34;8.65;;;1.88;;
63536;SDS011;49686;51.880;5.632;2023-08-07T04:45:00;6.28;;;2.10;;
63536;SDS011;49686;51.880;5.632;2023-08-07T04:47:28;9.38;;;1.95;;
63536;SDS011;49686;51.880;5.632;2023-08-07T04:49:55;9.57;;;2.20;;
63536;SDS011;49686;51.880;5.632;2023-08-07T04:52:22;9.95;;;2.38;;
63536;SDS011;49686;51.880;5.632;2023-08-07T04:54:53;9.73;;;2.20;;
63536;SDS011;49686;51.880;5.632;2023-08-07T04:57:24;7.57;;;1.98;;
63536;SDS011;49686;51.880;5.632;2023-08-07T04:59:51;8.18;;;1.90;;
63536;SDS011;49686;51.880;5.632;2023-08-07T05:02:18;6.95;;;1.90;;
63536;SDS011;49686;51.880;5.632;2023-08-07T05:04:47;6.05;;;2.40;;
63536;SDS011;49686;51.880;5.632;2023-08-07T05:07:13;7.00;;;1.90;;
63536;SDS011;49686;51.880;5.632;2023-08-07T05:09:40;8.35;;;2.00;;
63536;SDS011;49686;51.880;5.632;2023-08-07T05:12:07;8.10;;;2.78;;
63536;SDS011;49686;51.880;5.632;2023-08-07T05:14:34;10.18;;;2.35;;
63536;SDS011;49686;51.880;5.632;2023-08-07T05:17:01;9.77;;;2.00;;
63536;SDS011;49686;51.880;5.632;2023-08-07T05:19:28;8.38;;;1.92;;
63536;SDS011;49686;51.880;5.632;2023-08-07T05:21:56;11.48;;;2.80;;
63536;SDS011;49686;51.880;5.632;2023-08-07T05:24:23;10.73;;;2.75;;
63536;SDS011;49686;51.880;5.632;2023-08-07T05:26:50;9.55;;;2.13;;
63536;SDS011;49686;51.880;5.632;2023-08-07T05:29:17;7.35;;;2.30;;
63536;SDS011;49686;51.880;5.632;2023-08-07T05:31:43;10.02;;;2.30;;
63536;SDS011;49686;51.880;5.632;2023-08-07T05:34:10;7.50;;;2.17;;
63536;SDS011;49686;51.880;5.632;2023-08-07T05:36:37;12.25;;;2.40;;
63536;SDS011;49686;51.880;5.632;2023-08-07T05:39:05;9.43;;;2.55;;
63536;SDS011;49686;51.880;5.632;2023-08-07T05:41:32;11.32;;;3.22;;
63536;SDS011;49686;51.880;5.632;2023-08-07T05:43:59;10.90;;;2.40;;
63536;SDS011;49686;51.880;5.632;2023-08-07T05:46:26;8.55;;;2.00;;
63536;SDS011;49686;51.880;5.632;2023-08-07T05:48:53;10.52;;;2.30;;
63536;SDS011;49686;51.880;5.632;2023-08-07T05:51:22;12.65;;;3.20;;
63536;SDS011;49686;51.880;5.632;2023-08-07T05:53:49;14.65;;;2.80;;
63536;SDS011;49686;51.880;5.632;2023-08-07T05:56:18;10.52;;;2.22;;
63536;SDS011;49686;51.880;5.632;2023-08-07T05:58:45;11.55;;;2.70;;
63536;SDS011;49686;51.880;5.632;2023-08-07T06:01:11;11.98;;;2.53;;
63536;SDS011;49686;51.880;5.632;2023-08-07T06:03:38;10.65;;;2.95;;
63536;SDS011;49686;51.880;5.632;2023-08-07T06:06:05;9.40;;;2.40;;
63536;SDS011;49686;51.880;5.632;2023-08-07T06:08:32;12.35;;;3.83;;
63536;SDS011;49686;51.880;5.632;2023-08-07T06:10:59;10.80;;;3.00;;
63536;SDS011;49686;51.880;5.632;2023-08-07T06:13:27;9.95;;;2.78;;
63536;SDS011;49686;51.880;5.632;2023-08-07T06:16:01;11.38;;;2.72;;
63536;SDS011;49686;51.880;5.632;2023-08-07T06:18:28;6.40;;;3.05;;
63536;SDS011;49686;51.880;5.632;2023-08-07T06:20:55;9.23;;;2.40;;
63536;SDS011;49686;51.880;5.632;2023-08-07T06:23:22;7.65;;;1.88;;
63536;SDS011;49686;51.880;5.632;2023-08-07T06:25:49;12.10;;;2.42;;
63536;SDS011;49686;51.880;5.632;2023-08-07T06:28:22;5.55;;;1.85;;
63536;SDS011;49686;51.880;5.632;2023-08-07T06:30:50;6.43;;;1.95;;
63536;SDS011;49686;51.880;5.632;2023-08-07T06:33:17;7.47;;;1.85;;
63536;SDS011;49686;51.880;5.632;2023-08-07T06:35:44;8.25;;;2.10;;
63536;SDS011;49686;51.880;5.632;2023-08-07T06:38:10;5.47;;;1.75;;
63536;SDS011;49686;51.880;5.632;2023-08-07T06:40:37;7.28;;;2.60;;
63536;SDS011;49686;51.880;5.632;2023-08-07T06:43:04;6.60;;;1.98;;
63536;SDS011;49686;51.880;5.632;2023-08-07T06:45:31;7.78;;;2.05;;
63536;SDS011;49686;51.880;5.632;2023-08-07T06:47:59;10.52;;;2.30;;
63536;SDS011;49686;51.880;5.632;2023-08-07T06:50:26;5.97;;;2.38;;
63536;SDS011;49686;51.880;5.632;2023-08-07T06:52:53;8.52;;;2.72;;
63536;SDS011;49686;51.880;5.632;2023-08-07T06:55:20;9.00;;;2.33;;
63536;SDS011;49686;51.880;5.632;2023-08-07T06:57:47;3.17;;;1.70;;
63536;SDS011;49686;51.880;5.632;2023-08-07T07:00:14;7.72;;;2.50;;
63536;SDS011;49686;51.880;5.632;2023-08-07T07:02:42;9.40;;;2.63;;
63536;SDS011;49686;51.880;5.632;2023-08-07T07:05:10;11.18;;;2.63;;
63536;SDS011;49686;51.880;5.632;2023-08-07T07:07:37;13.43;;;2.80;;
63536;SDS011;49686;51.880;5.632;2023-08-07T07:10:05;7.07;;;2.20;;
63536;SDS011;49686;51.880;5.632;2023-08-07T07:12:33;7.88;;;2.33;;
63536;SDS011;49686;51.880;5.632;2023-08-07T07:15:00;11.98;;;2.92;;
63536;SDS011;49686;51.880;5.632;2023-08-07T07:17:27;10.40;;;2.40;;
63536;SDS011;49686;51.880;5.632;2023-08-07T07:19:55;6.93;;;2.40;;
63536;SDS011;49686;51.880;5.632;2023-08-07T07:22:23;11.55;;;3.00;;
63536;SDS011;49686;51.880;5.632;2023-08-07T07:24:50;7.70;;;2.60;;
63536;SDS011;49686;51.880;5.632;2023-08-07T07:27:18;11.10;;;3.47;;
63536;SDS011;49686;51.880;5.632;2023-08-07T07:29:48;9.30;;;2.78;;
63536;SDS011;49686;51.880;5.632;2023-08-07T07:32:15;6.78;;;2.00;;
63536;SDS011;49686;51.880;5.632;2023-08-07T07:34:43;7.57;;;1.90;;
63536;SDS011;49686;51.880;5.632;2023-08-07T07:37:10;7.72;;;2.20;;
63536;SDS011;49686;51.880;5.632;2023-08-07T07:39:41;11.38;;;2.70;;
63536;SDS011;49686;51.880;5.632;2023-08-07T07:42:08;9.95;;;2.60;;
63536;SDS011;49686;51.880;5.632;2023-08-07T07:44:35;9.88;;;2.58;;
63536;SDS011;49686;51.880;5.632;2023-08-07T07:47:01;7.65;;;3.03;;
63536;SDS011;49686;51.880;5.632;2023-08-07T07:49:28;7.53;;;2.63;;
63536;SDS011;49686;51.880;5.632;2023-08-07T07:51:55;13.10;;;2.47;;
63536;SDS011;49686;51.880;5.632;2023-08-07T07:54:22;11.02;;;2.33;;
63536;SDS011;49686;51.880;5.632;2023-08-07T07:56:50;9.50;;;2.83;;
63536;SDS011;49686;51.880;5.632;2023-08-07T07:59:17;7.82;;;2.13;;
63536;SDS011;49686;51.880;5.632;2023-08-07T08:01:44;7.88;;;2.97;;
63536;SDS011;49686;51.880;5.632;2023-08-07T08:04:11;10.10;;;2.80;;
63536;SDS011;49686;51.880;5.632;2023-08-07T08:06:39;8.15;;;2.55;;
63536;SDS011;49686;51.880;5.632;2023-08-07T08:09:06;8.68;;;3.00;;
63536;SDS011;49686;51.880;5.632;2023-08-07T08:11:33;5.85;;;2.05;;
63536;SDS011;49686;51.880;5.632;2023-08-07T08:14:01;6.25;;;2.00;;
63536;SDS011;49686;51.880;5.632;2023-08-07T08:16:28;6.68;;;2.15;;
63536;SDS011;49686;51.880;5.632;2023-08-07T08:18:55;8.07;;;2.63;;
63536;SDS011;49686;51.880;5.632;2023-08-07T08:21:22;9.82;;;2.00;;
63536;SDS011;49686;51.880;5.632;2023-08-07T08:23:48;8.80;;;2.35;;
63536;SDS011;49686;51.880;5.632;2023-08-07T08:26:15;12.52;;;2.53;;
63536;SDS011;49686;51.880;5.632;2023-08-07T08:28:42;7.97;;;2.00;;
63536;SDS011;49686;51.880;5.632;2023-08-07T08:31:10;9.63;;;2.05;;
63536;SDS011;49686;51.880;5.632;2023-08-07T08:33:37;7.50;;;2.20;;
63536;SDS011;49686;51.880;5.632;2023-08-07T08:36:04;7.57;;;2.60;;
63536;SDS011;49686;51.880;5.632;2023-08-07T08:38:31;8.90;;;2.45;;
63536;SDS011;49686;51.880;5.632;2023-08-07T08:40:58;6.53;;;1.95;;
63536;SDS011;49686;51.880;5.632;2023-08-07T08:43:28;10.20;;;2.00;;
63536;SDS011;49686;51.880;5.632;2023-08-07T08:46:00;8.68;;;2.05;;
63536;SDS011;49686;51.880;5.632;2023-08-07T08:48:29;8.82;;;1.85;;
63536;SDS011;49686;51.880;5.632;2023-08-07T08:50:59;7.13;;;1.77;;
63536;SDS011;49686;51.880;5.632;2023-08-07T08:53:27;7.85;;;2.10;;
63536;SDS011;49686;51.880;5.632;2023-08-07T08:55:54;8.68;;;1.88;;
63536;SDS011;49686;51.880;5.632;2023-08-07T08:58:21;5.65;;;1.60;;
63536;SDS011;49686;51.880;5.632;2023-08-07T09:00:49;7.93;;;1.90;;
63536;SDS011;49686;51.880;5.632;2023-08-07T09:03:17;9.75;;;2.25;;
63536;SDS011;49686;51.880;5.632;2023-08-07T09:05:46;4.05;;;1.77;;
63536;SDS011;49686;51.880;5.632;2023-08-07T09:08:14;4.15;;;1.48;;
63536;SDS011;49686;51.880;5.632;2023-08-07T09:10:41;8.63;;;1.80;;
63536;SDS011;49686;51.880;5.632;2023-08-07T09:13:09;7.40;;;2.22;;
63536;SDS011;49686;51.880;5.632;2023-08-07T09:15:40;6.85;;;1.70;;
63536;SDS011;49686;51.880;5.632;2023-08-07T09:18:09;6.10;;;1.88;;
63536;SDS011;49686;51.880;5.632;2023-08-07T09:20:36;7.20;;;1.77;;
63536;SDS011;49686;51.880;5.632;2023-08-07T09:23:06;7.18;;;1.70;;
63536;SDS011;49686;51.880;5.632;2023-08-07T09:25:33;6.00;;;1.67;;
63536;SDS011;49686;51.880;5.632;2023-08-07T09:28:01;5.95;;;1.77;;
63536;SDS011;49686;51.880;5.632;2023-08-07T09:30:28;6.97;;;1.87;;
63536;SDS011;49686;51.880;5.632;2023-08-07T09:32:57;7.18;;;1.65;;
63536;SDS011;49686;51.880;5.632;2023-08-07T09:35:24;6.18;;;1.67;;
63536;SDS011;49686;51.880;5.632;2023-08-07T09:37:52;6.03;;;1.73;;
63536;SDS011;49686;51.880;5.632;2023-08-07T09:40:20;6.55;;;1.85;;
63536;SDS011;49686;51.880;5.632;2023-08-07T09:42:49;5.90;;;1.80;;
63536;SDS011;49686;51.880;5.632;2023-08-07T09:45:20;9.15;;;2.08;;
63536;SDS011;49686;51.880;5.632;2023-08-07T09:47:56;7.13;;;2.00;;
63536;SDS011;49686;51.880;5.632;2023-08-07T09:50:24;9.05;;;2.45;;
63536;SDS011;49686;51.880;5.632;2023-08-07T09:52:54;8.70;;;2.22;;
63536;SDS011;49686;51.880;5.632;2023-08-07T09:55:25;5.75;;;1.98;;
63536;SDS011;49686;51.880;5.632;2023-08-07T09:57:52;9.10;;;2.15;;
63536;SDS011;49686;51.880;5.632;2023-08-07T10:00:22;8.82;;;2.25;;
63536;SDS011;49686;51.880;5.632;2023-08-07T10:02:49;8.10;;;2.22;;
63536;SDS011;49686;51.880;5.632;2023-08-07T10:05:17;5.30;;;2.33;;
63536;SDS011;49686;51.880;5.632;2023-08-07T10:07:44;5.22;;;1.80;;
63536;SDS011;49686;51.880;5.632;2023-08-07T10:10:12;6.32;;;1.80;;
63536;SDS011;49686;51.880;5.632;2023-08-07T10:12:42;4.47;;;1.40;;
63536;SDS011;49686;51.880;5.632;2023-08-07T10:15:09;6.60;;;1.75;;
63536;SDS011;49686;51.880;5.632;2023-08-07T10:17:37;10.57;;;1.90;;
63536;SDS011;49686;51.880;5.632;2023-08-07T10:20:04;6.90;;;1.75;;
63536;SDS011;49686;51.880;5.632;2023-08-07T10:22:32;8.40;;;2.20;;
63536;SDS011;49686;51.880;5.632;2023-08-07T10:25:01;4.95;;;2.25;;
63536;SDS011;49686;51.880;5.632;2023-08-07T10:27:29;5.37;;;1.70;;
63536;SDS011;49686;51.880;5.632;2023-08-07T10:30:01;6.78;;;1.65;;
63536;SDS011;49686;51.880;5.632;2023-08-07T10:32:36;7.20;;;1.88;;
63536;SDS011;49686;51.880;5.632;2023-08-07T10:35:03;7.68;;;1.85;;
63536;SDS011;49686;51.880;5.632;2023-08-07T10:37:40;6.23;;;2.10;;
63536;SDS011;49686;51.880;5.632;2023-08-07T10:40:09;6.10;;;2.25;;
63536;SDS011;49686;51.880;5.632;2023-08-07T10:42:52;7.55;;;1.65;;
63536;SDS011;49686;51.880;5.632;2023-08-07T10:45:24;6.90;;;2.00;;
63536;SDS011;49686;51.880;5.632;2023-08-07T10:48:02;4.65;;;1.80;;
63536;SDS011;49686;51.880;5.632;2023-08-07T10:50:32;4.60;;;1.75;;
63536;SDS011;49686;51.880;5.632;2023-08-07T10:53:03;6.03;;;1.70;;
63536;SDS011;49686;51.880;5.632;2023-08-07T10:55:42;7.65;;;1.80;;
63536;SDS011;49686;51.880;5.632;2023-08-07T10:58:20;8.10;;;1.65;;
63536;SDS011;49686;51.880;5.632;2023-08-07T11:00:55;7.72;;;2.00;;
63536;SDS011;49686;51.880;5.632;2023-08-07T11:03:44;8.50;;;1.83;;
63536;SDS011;49686;51.880;5.632;2023-08-07T11:06:11;6.75;;;1.85;;
63536;SDS011;49686;51.880;5.632;2023-08-07T11:08:38;9.98;;;2.17;;
63536;SDS011;49686;51.880;5.632;2023-08-07T11:11:05;6.38;;;1.70;;
63536;SDS011;49686;51.880;5.632;2023-08-07T11:13:32;7.22;;;1.75;;
63536;SDS011;49686;51.880;5.632;2023-08-07T11:16:01;7.55;;;1.90;;
63536;SDS011;49686;51.880;5.632;2023-08-07T11:18:28;4.57;;;1.67;;
63536;SDS011;49686;51.880;5.632;2023-08-07T11:20:56;5.70;;;1.90;;
63536;SDS011;49686;51.880;5.632;2023-08-07T11:23:23;4.45;;;1.65;;
63536;SDS011;49686;51.880;5.632;2023-08-07T11:25:51;4.43;;;1.42;;
63536;SDS011;49686;51.880;5.632;2023-08-07T11:28:18;3.22;;;1.23;;
63536;SDS011;49686;51.880;5.632;2023-08-07T11:30:46;4.97;;;1.40;;
63536;SDS011;49686;51.880;5.632;2023-08-07T11:33:16;3.40;;;1.30;;
63536;SDS011;49686;51.880;5.632;2023-08-07T11:35:44;7.28;;;1.90;;
63536;SDS011;49686;51.880;5.632;2023-08-07T11:38:11;3.88;;;1.30;;
63536;SDS011;49686;51.880;5.632;2023-08-07T11:40:38;5.03;;;1.17;;
63536;SDS011;49686;51.880;5.632;2023-08-07T11:43:05;5.65;;;1.40;;
63536;SDS011;49686;51.880;5.632;2023-08-07T11:45:32;7.68;;;1.90;;
63536;SDS011;49686;51.880;5.632;2023-08-07T11:47:59;4.68;;;1.45;;
63536;SDS011;49686;51.880;5.632;2023-08-07T11:50:28;6.90;;;2.35;;
63536;SDS011;49686;51.880;5.632;2023-08-07T11:52:54;6.78;;;1.58;;
63536;SDS011;49686;51.880;5.632;2023-08-07T11:55:21;5.72;;;1.60;;
63536;SDS011;49686;51.880;5.632;2023-08-07T11:57:50;6.85;;;1.40;;
63536;SDS011;49686;51.880;5.632;2023-08-07T12:00:16;5.07;;;1.98;;
63536;SDS011;49686;51.880;5.632;2023-08-07T12:02:46;6.30;;;1.80;;
63536;SDS011;49686;51.880;5.632;2023-08-07T12:05:13;4.93;;;1.70;;
63536;SDS011;49686;51.880;5.632;2023-08-07T12:07:41;6.28;;;1.45;;
63536;SDS011;49686;51.880;5.632;2023-08-07T12:12:36;6.85;;;1.75;;
63536;SDS011;49686;51.880;5.632;2023-08-07T12:15:06;5.50;;;1.73;;
63536;SDS011;49686;51.880;5.632;2023-08-07T12:17:33;5.18;;;1.50;;
63536;SDS011;49686;51.880;5.632;2023-08-07T12:20:05;4.65;;;1.60;;
63536;SDS011;49686;51.880;5.632;2023-08-07T12:22:34;4.72;;;1.50;;
63536;SDS011;49686;51.880;5.632;2023-08-07T12:25:03;9.05;;;1.73;;
63536;SDS011;49686;51.880;5.632;2023-08-07T12:27:31;2.88;;;1.20;;
63536;SDS011;49686;51.880;5.632;2023-08-07T12:29:58;5.25;;;1.60;;
63536;SDS011;49686;51.880;5.632;2023-08-07T12:32:25;6.10;;;1.50;;
63536;SDS011;49686;51.880;5.632;2023-08-07T12:34:51;6.68;;;1.67;;
63536;SDS011;49686;51.880;5.632;2023-08-07T12:37:21;6.82;;;1.92;;
63536;SDS011;49686;51.880;5.632;2023-08-07T12:39:48;5.65;;;1.70;;
63536;SDS011;49686;51.880;5.632;2023-08-07T12:42:22;6.53;;;2.30;;
63536;SDS011;49686;51.880;5.632;2023-08-07T12:44:51;6.75;;;1.60;;
63536;SDS011;49686;51.880;5.632;2023-08-07T12:47:20;7.80;;;1.60;;
63536;SDS011;49686;51.880;5.632;2023-08-07T12:49:47;3.40;;;1.40;;
63536;SDS011;49686;51.880;5.632;2023-08-07T12:52:17;3.70;;;2.00;;
63536;SDS011;49686;51.880;5.632;2023-08-07T12:54:45;3.35;;;1.30;;
63536;SDS011;49686;51.880;5.632;2023-08-07T12:57:11;4.57;;;1.35;;
63536;SDS011;49686;51.880;5.632;2023-08-07T12:59:40;5.38;;;1.30;;
63536;SDS011;49686;51.880;5.632;2023-08-07T13:02:06;7.05;;;1.60;;
63536;SDS011;49686;51.880;5.632;2023-08-07T13:04:36;5.05;;;1.40;;
63536;SDS011;49686;51.880;5.632;2023-08-07T13:07:03;5.07;;;1.35;;
63536;SDS011;49686;51.880;5.632;2023-08-07T13:09:30;4.57;;;1.58;;
63536;SDS011;49686;51.880;5.632;2023-08-07T13:11:57;6.10;;;1.92;;
63536;SDS011;49686;51.880;5.632;2023-08-07T13:14:24;5.32;;;1.83;;
63536;SDS011;49686;51.880;5.632;2023-08-07T13:17:02;3.20;;;1.30;;
63536;SDS011;49686;51.880;5.632;2023-08-07T13:19:29;6.28;;;1.52;;
63536;SDS011;49686;51.880;5.632;2023-08-07T13:21:56;5.53;;;1.77;;
63536;SDS011;49686;51.880;5.632;2023-08-07T13:24:23;5.90;;;1.40;;
63536;SDS011;49686;51.880;5.632;2023-08-07T13:26:50;2.00;;;1.55;;
63536;SDS011;49686;51.880;5.632;2023-08-07T13:29:17;4.85;;;1.60;;
63536;SDS011;49686;51.880;5.632;2023-08-07T13:31:44;3.80;;;1.40;;
63536;SDS011;49686;51.880;5.632;2023-08-07T13:34:12;3.47;;;1.10;;
63536;SDS011;49686;51.880;5.632;2023-08-07T13:36:39;6.07;;;1.30;;
63536;SDS011;49686;51.880;5.632;2023-08-07T13:39:06;4.40;;;1.20;;
63536;SDS011;49686;51.880;5.632;2023-08-07T13:41:35;4.68;;;1.33;;
63536;SDS011;49686;51.880;5.632;2023-08-07T13:44:02;3.05;;;1.35;;
63536;SDS011;49686;51.880;5.632;2023-08-07T13:46:28;4.32;;;1.88;;
63536;SDS011;49686;51.880;5.632;2023-08-07T13:48:55;4.15;;;1.50;;
63536;SDS011;49686;51.880;5.632;2023-08-07T13:51:23;3.55;;;1.40;;
63536;SDS011;49686;51.880;5.632;2023-08-07T13:53:50;2.47;;;1.50;;
63536;SDS011;49686;51.880;5.632;2023-08-07T13:56:17;2.80;;;1.50;;
63536;SDS011;49686;51.880;5.632;2023-08-07T13:58:44;2.25;;;1.30;;
63536;SDS011;49686;51.880;5.632;2023-08-07T14:01:11;2.50;;;1.10;;
63536;SDS011;49686;51.880;5.632;2023-08-07T14:03:38;2.53;;;1.23;;
63536;SDS011;49686;51.880;5.632;2023-08-07T14:06:04;2.97;;;1.05;;
63536;SDS011;49686;51.880;5.632;2023-08-07T14:08:33;3.53;;;1.20;;
63536;SDS011;49686;51.880;5.632;2023-08-07T14:11:00;2.75;;;1.13;;
63536;SDS011;49686;51.880;5.632;2023-08-07T14:13:26;4.57;;;1.30;;
63536;SDS011;49686;51.880;5.632;2023-08-07T14:15:53;2.85;;;1.15;;
63536;SDS011;49686;51.880;5.632;2023-08-07T14:18:20;7.30;;;1.35;;
63536;SDS011;49686;51.880;5.632;2023-08-07T14:20:47;4.22;;;1.65;;
63536;SDS011;49686;51.880;5.632;2023-08-07T14:23:27;3.80;;;1.15;;
63536;SDS011;49686;51.880;5.632;2023-08-07T14:25:59;2.30;;;1.02;;
63536;SDS011;49686;51.880;5.632;2023-08-07T14:28:27;6.03;;;1.50;;
63536;SDS011;49686;51.880;5.632;2023-08-07T14:30:56;7.05;;;1.48;;
63536;SDS011;49686;51.880;5.632;2023-08-07T14:33:24;4.80;;;1.30;;
63536;SDS011;49686;51.880;5.632;2023-08-07T14:35:50;7.45;;;1.70;;
63536;SDS011;49686;51.880;5.632;2023-08-07T14:38:17;3.25;;;1.10;;
63536;SDS011;49686;51.880;5.632;2023-08-07T14:40:44;3.65;;;1.40;;
63536;SDS011;49686;51.880;5.632;2023-08-07T14:43:12;4.50;;;1.50;;
63536;SDS011;49686;51.880;5.632;2023-08-07T14:45:40;3.55;;;1.33;;
63536;SDS011;49686;51.880;5.632;2023-08-07T14:48:06;2.08;;;1.13;;
63536;SDS011;49686;51.880;5.632;2023-08-07T14:50:33;3.22;;;1.20;;
63536;SDS011;49686;51.880;5.632;2023-08-07T14:53:01;5.18;;;1.60;;
63536;SDS011;49686;51.880;5.632;2023-08-07T14:55:27;6.72;;;1.98;;